Greenwood, Missouri
Current Conditions -  °F | °C
As of 11:53 PM on Wednesday 17 Dec 2014 (Local Time) from KLXT Reporting Station
Light Snow Light Snow  
Wind Chill: 22°   Ceiling: 3200
Heat Index: 30°   Visibility: 4mi
Dew Point: 23°   Wind: 9mph
Humidity: 75%   Direction: 80°E
Pressure: 30.25"   Gusts: NA
Location:  38.85°N, 94.34°W
Report Text: KLXT 180553Z AUTO 08008KT 4SM -SN FEW024 BKN032 OVC050 M01/M05 A3025 RMK AO2 SNB23 PRESFR SLP253 P0000 60000 T10111050 11011 21017 410061050 56005 TSNO
Loading
Personal Weather Stations






























Interactive Weather Map New forecast layout! Learn more

10-Day Weather Forecast

Advertisements
Track Severe Weather on mobile